Airfield :
LOGIN :

Register | Disclaimer

   EN    FR    IT 

 










Legend :    VFR   Marginal VFR   IFR   Intensive IFR   Very Intensive IFR
Visi :
Ceiling :
>= 8 km
>= 3000ft
5 to 8 km
1000 to 3000 ft
1500m to 5 km
500 to 1000 ft
800 to 1500m
200 to 500 ft
< 800m
< 200 ft
Symbols :   Thunderstorms  Fog  Heavy snow  Heavy precipitations  Wind > 20 kt
SIGMETs :     Misc.  Thunderstorms  Icing  Turbulence  Mountain Waves  Volcanic Ashes






- Airport Elevation : 856 ft
- IATA code : VGO


LEVX - Vigo Peinador

CURRENT METAR :
  • 171830Z 31007KT 280V340 9999 FEW017 BKN030 18/15 Q1018 NOSIG

EXPIRED METARs :
  • 171800Z 30008KT 260V340 9999 FEW017 BKN032 18/15 Q1017 NOSIG
  • 171730Z 30005KT 270V330 9999 FEW015 BKN030 18/15 Q1017 NOSIG
  • 171700Z 30006KT 250V340 9999 FEW015 SCT030 19/15 Q1017 NOSIG
  • 171630Z 31005KT 260V340 9999 FEW022 BKN040 19/15 Q1017 NOSIG
  • 171600Z 36005KT 300V050 9999 FEW015 SCT025 BKN032 19/15 Q1017 NOSIG

TAF TAF LEVX
Valid from the 17 at 18:00 until the 18 at 18:00 UTC


171700Z 1718/1818 36005KT CAVOK TX18/1814Z TN12/1806Z
PROB30
TEMPO 1800/1807 3000 BR



MET'MAP, your aeronautical weather chart ! - Copyright ORBIFLY December 2007 - Disclaimer

ORBIFLY MET'MAP TEAM :

Programming & Development : Alexandra Zaïnal
Concept & original design : Baudouin d'Aumeries
Assistance for programming : Marc-Olivier Méhu
Technical & hardware support : Manuel Goepfert

Contact : metmap@orbifly.com




SOURCES & CREDITS :

   NOAA